Weippe, ID (83553)

2:55 PM PDT on March 28, 2017 (GMT -0700)
MD3200 | | Change Station

Elev 3066 ft 46.38 °N, 115.95 °W | Updated 21 minutes ago

Overcast
Overcast
44.0 °F
Feels Like 44 °F
N
0.0
Wind Variable Wind from WNW

Today
High -- | Low -- °F
--% Chance of Precip.
Yesterday
High -- | Low -- °F
Precip. -- in
Pressure 30.23 in
Visibility 10.0 miles
Clouds Scattered Clouds 4000 ft
Mostly Cloudy 5000 ft
Overcast 6500 ft
Windchill 44 °F
Dew Point 34 °F
Humidity 68%
Rainfall 0.00 in
Snow Depth Not available.
6:30 AM 7:07 PM
New Moon, 1% visible
METAR KGIC 282135Z AUTO 29005KT 10SM SCT040 BKN050 OVC065 08/00 A3023 RMK AO1
Pressure 30.23 in
Visibility 10.0 miles
Clouds Scattered Clouds 4000 ft
Mostly Cloudy 5000 ft
Overcast 6500 ft
Windchill 44 °F
Dew Point 34 °F
Humidity 68%
Rainfall 0.00 in
Snow Depth Not available.
6:30 AM 7:07 PM
New Moon, 1% visible
METAR KGIC 282135Z AUTO 29005KT 10SM SCT040 BKN050 OVC065 08/00 A3023 RMK AO1

Get Severe Weather Alerts

Thanks for signing up!

Be on the lookout for a verification email in your inbox.

You'll start receiving the daily forecast at 8 AM.

×

10-Day Weather Forecast

Almanac

Astronomy

Mar. 28, 2017 Rise Set
Actual Time
Civil Twilight
Nautical Twilight
Astronomical Twilight
Moon
Length of Visible Light
Length of Day
Tomorrow will be .
, % of the Moon is Illuminated

Today's Extremes

State Highs State Lows

Community

WunderPhotos

Upload Photos

1,962,540 photos uploaded!

WunderBlog® & News

Nearby

Air Quality

  Air Quality AQ Index Pollutant
Not available.

Snow Depth

Station Depth Elevation

Earthquake Activity

City Distance Mag. Time & Date
Minimum magnitude displayed is 2.5.

Earthquake Activity

City Distance Mag. Time & Date
Minimum magnitude displayed is 2.5.

Coastal Water Temperatures

Place Temperature

Stations

Nearby Weather Stations

Station Location Temp. Windchill Dew Point Humidity Wind Precip. Elev Updated Type
                   

Watches & Warnings

There are currently no watches in effect.